Time;durP1;ratioP1;P1;durP2;ratioP2;P2;SDS_P1;SDS_P2;PMS_P1;PMS_P2;Temp;Humidity;BMP_temperature;BMP_pressure;BME280_temperature;BME280_humidity;BME280_pressure;Samples;Min_cycle;Max_cycle;Signal;HPM_P1;HPM_P2
2023/09/24 00:00:48;;;;;;;0.20;0.20;;;;;;;;;;5056951;28;20544;-59
2023/09/24 00:03:14;;;;;;;0.40;0.20;;;;;;;;;;5058086;28;20120;-59
2023/09/24 00:05:42;;;;;;;0.30;0.30;;;;;;;;;;5058786;28;20044;-59
2023/09/24 00:08:08;;;;;;;0.98;0.40;;;;;;;;;;5056825;28;20051;-59
2023/09/24 00:10:35;;;;;;;0.20;0.10;;;;;;;;;;5060605;28;20211;-59
2023/09/24 00:13:01;;;;;;;0.32;0.28;;;;;;;;;;5054145;28;20473;-59
2023/09/24 00:15:27;;;;;;;0.20;0.20;;;;;;;;;;5058059;28;20047;-59
2023/09/24 00:17:53;;;;;;;0.68;0.30;;;;;;;;;;5056164;28;20045;-59
2023/09/24 00:20:19;;;;;;;0.57;0.30;;;;;;;;;;5052426;28;20084;-59
2023/09/24 00:22:47;;;;;;;0.22;0.20;;;;;;;;;;5054205;28;20048;-59
2023/09/24 00:25:14;;;;;;;0.50;0.20;;;;;;;;;;5055299;28;20040;-59
2023/09/24 00:27:40;;;;;;;0.20;0.20;;;;;;;;;;5050589;28;20064;-59
2023/09/24 00:30:06;;;;;;;0.38;0.20;;;;;;;;;;5053649;28;20054;-59
2023/09/24 00:32:32;;;;;;;0.20;0.20;;;;;;;;;;5052161;28;20124;-59
2023/09/24 00:34:58;;;;;;;0.40;0.30;;;;;;;;;;5051596;28;20045;-59
2023/09/24 00:37:24;;;;;;;0.22;0.22;;;;;;;;;;5052798;28;20051;-59
2023/09/24 00:39:50;;;;;;;0.60;0.20;;;;;;;;;;5050538;28;20076;-59
2023/09/24 00:42:16;;;;;;;0.20;0.20;;;;;;;;;;5055979;28;20087;-59
2023/09/24 00:44:42;;;;;;;0.20;0.20;;;;;;;;;;5058359;28;20428;-59
2023/09/24 00:47:08;;;;;;;0.60;0.25;;;;;;;;;;5055658;28;20041;-59
2023/09/24 00:49:35;;;;;;;0.40;0.10;;;;;;;;;;5050199;28;20119;-59
2023/09/24 00:52:01;;;;;;;1.40;0.45;;;;;;;;;;5049470;28;20047;-59
2023/09/24 00:54:27;;;;;;;0.20;0.20;;;;;;;;;;5053130;28;20528;-59
2023/09/24 00:56:58;;;;;;;1.95;0.40;;;;;;;;;;5051339;28;20055;-59
2023/09/24 00:59:24;;;;;;;0.47;0.20;;;;;;;;;;5053466;28;20106;-59
2023/09/24 01:01:50;;;;;;;0.40;0.20;;;;;;;;;;5052371;28;20044;-60
2023/09/24 01:04:17;;;;;;;0.60;0.22;;;;;;;;;;5054613;28;20033;-59
2023/09/24 01:06:43;;;;;;;0.88;0.35;;;;;;;;;;5055612;28;20571;-58
2023/09/24 01:09:12;;;;;;;0.20;0.20;;;;;;;;;;5056343;28;20378;-59
2023/09/24 01:11:39;;;;;;;0.20;0.20;;;;;;;;;;5051979;28;20051;-59
2023/09/24 01:14:05;;;;;;;0.30;0.30;;;;;;;;;;5054835;28;20051;-59
2023/09/24 01:16:37;;;;;;;0.20;0.20;;;;;;;;;;5057828;28;20052;-59
2023/09/24 01:19:05;;;;;;;;;;;;;;;;;;5053710;28;20036;-59
2023/09/24 01:21:31;;;;;;;0.25;0.25;;;;;;;;;;5055279;28;19956;-59
2023/09/24 01:23:59;;;;;;;0.40;0.40;;;;;;;;;;5055606;28;20140;-59
2023/09/24 01:26:25;;;;;;;0.20;0.20;;;;;;;;;;5048679;28;20405;-59
2023/09/24 01:28:52;;;;;;;0.28;0.28;;;;;;;;;;5050190;28;20831;-59
2023/09/24 01:31:18;;;;;;;0.47;0.20;;;;;;;;;;5050769;28;20040;-59
2023/09/24 01:33:45;;;;;;;0.60;0.22;;;;;;;;;;5049735;28;20432;-59
2023/09/24 01:36:11;;;;;;;0.90;0.28;;;;;;;;;;5050798;28;20036;-59
2023/09/24 01:38:40;;;;;;;2.00;0.38;;;;;;;;;;5052944;28;20117;-59
2023/09/24 01:41:09;;;;;;;0.55;0.32;;;;;;;;;;5051626;28;20048;-59
2023/09/24 01:43:35;;;;;;;0.30;0.20;;;;;;;;;;5049642;28;20051;-59
2023/09/24 01:46:05;;;;;;;0.40;0.30;;;;;;;;;;5053198;28;20408;-59
2023/09/24 01:48:32;;;;;;;1.02;0.45;;;;;;;;;;5055546;28;20084;-59
2023/09/24 01:50:58;;;;;;;0.30;0.30;;;;;;;;;;5051695;28;20051;-59
2023/09/24 01:53:25;;;;;;;0.30;0.30;;;;;;;;;;5054412;28;20629;-59
2023/09/24 01:55:52;;;;;;;0.38;0.30;;;;;;;;;;5055715;28;20056;-59
2023/09/24 01:58:18;;;;;;;0.30;0.30;;;;;;;;;;5053601;28;20484;-59
2023/09/24 02:00:44;;;;;;;0.30;0.30;;;;;;;;;;5050195;28;20036;-59
2023/09/24 02:03:11;;;;;;;0.40;0.40;;;;;;;;;;5055503;28;20036;-59
2023/09/24 02:05:42;;;;;;;0.30;0.30;;;;;;;;;;5049369;28;20040;-59
2023/09/24 02:08:10;;;;;;;0.30;0.30;;;;;;;;;;5051109;28;20119;-59
2023/09/24 02:10:40;;;;;;;0.45;0.30;;;;;;;;;;5057431;28;20044;-59
2023/09/24 02:13:07;;;;;;;0.30;0.30;;;;;;;;;;5055103;28;20277;-59
2023/09/24 02:15:34;;;;;;;0.43;0.30;;;;;;;;;;5053459;28;20041;-59
2023/09/24 02:18:00;;;;;;;0.35;0.35;;;;;;;;;;5057160;28;20098;-59
2023/09/24 02:20:32;;;;;;;0.35;0.35;;;;;;;;;;5053854;28;20040;-59
2023/09/24 02:22:59;;;;;;;;;;;;;;;;;;5056357;28;20052;-59
2023/09/24 02:25:25;;;;;;;0.40;0.40;;;;;;;;;;5056004;28;19950;-59
2023/09/24 02:27:52;;;;;;;0.30;0.30;;;;;;;;;;5049304;28;20084;-59
2023/09/24 02:30:18;;;;;;;0.50;0.50;;;;;;;;;;5053475;28;20686;-59
2023/09/24 02:32:44;;;;;;;0.40;0.40;;;;;;;;;;5053264;28;20036;-59
2023/09/24 02:35:11;;;;;;;0.20;0.20;;;;;;;;;;5054361;28;20136;-60
2023/09/24 02:37:58;;;;;;;0.30;0.30;;;;;;;;;;5053617;28;20068;-59
2023/09/24 02:40:26;;;;;;;0.30;0.20;;;;;;;;;;5054716;28;20075;-59
2023/09/24 02:42:53;;;;;;;0.20;0.20;;;;;;;;;;5055535;28;20079;-59
2023/09/24 02:45:19;;;;;;;0.30;0.30;;;;;;;;;;5054559;28;20400;-59
2023/09/24 02:47:46;;;;;;;0.52;0.50;;;;;;;;;;5053099;28;20389;-59
2023/09/24 02:50:13;;;;;;;0.20;0.10;;;;;;;;;;5053857;28;20043;-60
2023/09/24 02:52:39;;;;;;;0.22;0.22;;;;;;;;;;5059921;28;20036;-59
2023/09/24 02:55:07;;;;;;;0.47;0.20;;;;;;;;;;5055206;28;20052;-59
2023/09/24 02:57:33;;;;;;;0.15;0.13;;;;;;;;;;5058215;28;20033;-59
2023/09/24 02:59:59;;;;;;;1.10;0.30;;;;;;;;;;5059424;28;20079;-59
2023/09/24 03:02:28;;;;;;;0.20;0.20;;;;;;;;;;5055756;28;20143;-59
2023/09/24 03:04:54;;;;;;;0.15;0.15;;;;;;;;;;5055046;28;20115;-59
2023/09/24 03:07:20;;;;;;;0.20;0.20;;;;;;;;;;5058215;28;20075;-60
2023/09/24 03:09:46;;;;;;;0.13;0.13;;;;;;;;;;5051098;28;20037;-59
2023/09/24 03:12:12;;;;;;;0.05;0.05;;;;;;;;;;5053247;28;20060;-59
2023/09/24 03:14:38;;;;;;;0.20;0.20;;;;;;;;;;5051679;28;20477;-59
2023/09/24 03:17:05;;;;;;;0.28;0.20;;;;;;;;;;5056082;28;20052;-59
2023/09/24 03:19:31;;;;;;;0.20;0.20;;;;;;;;;;5058447;28;20032;-59
2023/09/24 03:21:57;;;;;;;0.55;0.28;;;;;;;;;;5051726;28;20122;-59
2023/09/24 03:24:23;;;;;;;0.35;0.32;;;;;;;;;;5053525;28;20829;-59
2023/09/24 03:26:49;;;;;;;0.40;0.40;;;;;;;;;;5054132;28;20072;-59
2023/09/24 03:29:15;;;;;;;0.10;0.10;;;;;;;;;;5053196;28;20119;-59
2023/09/24 03:31:42;;;;;;;0.30;0.30;;;;;;;;;;5059133;28;20045;-59
2023/09/24 03:34:08;;;;;;;0.20;0.20;;;;;;;;;;5054213;28;20144;-59
2023/09/24 03:36:34;;;;;;;1.80;0.35;;;;;;;;;;5054018;28;20796;-59
2023/09/24 03:39:00;;;;;;;0.22;0.22;;;;;;;;;;5050289;28;20048;-58
2023/09/24 03:41:26;;;;;;;0.28;0.28;;;;;;;;;;5056536;28;20505;-59
2023/09/24 03:43:52;;;;;;;0.20;0.20;;;;;;;;;;5051428;28;20481;-59
2023/09/24 03:46:18;;;;;;;0.32;0.30;;;;;;;;;;5054187;28;20047;-59
2023/09/24 03:48:44;;;;;;;0.20;0.20;;;;;;;;;;5054776;28;20040;-58
2023/09/24 03:51:10;;;;;;;0.30;0.30;;;;;;;;;;5056245;28;20950;-59
2023/09/24 03:53:37;;;;;;;0.20;0.20;;;;;;;;;;5053104;28;20051;-59
2023/09/24 03:56:07;;;;;;;0.22;0.22;;;;;;;;;;5054815;28;20102;-59
2023/09/24 03:58:33;;;;;;;0.28;0.25;;;;;;;;;;5054135;28;20048;-59
2023/09/24 04:00:59;;;;;;;0.25;0.25;;;;;;;;;;5052182;28;20050;-59
2023/09/24 04:03:25;;;;;;;0.55;0.55;;;;;;;;;;5055834;28;20127;-59
2023/09/24 04:05:52;;;;;;;0.22;0.22;;;;;;;;;;5055751;28;20094;-59
2023/09/24 04:08:18;;;;;;;0.20;0.20;;;;;;;;;;5054777;28;20051;-59
2023/09/24 04:10:44;;;;;;;0.60;0.40;;;;;;;;;;5060251;28;20037;-58
2023/09/24 04:13:12;;;;;;;0.55;0.40;;;;;;;;;;5055075;28;20081;-59
2023/09/24 04:15:38;;;;;;;0.50;0.30;;;;;;;;;;5050668;28;20529;-59
2023/09/24 04:18:04;;;;;;;0.40;0.40;;;;;;;;;;5055687;28;20124;-59
2023/09/24 04:20:33;;;;;;;0.40;0.40;;;;;;;;;;5053141;28;20067;-59
2023/09/24 04:22:59;;;;;;;0.30;0.30;;;;;;;;;;5053209;28;20158;-59
2023/09/24 04:25:26;;;;;;;0.40;0.40;;;;;;;;;;5052852;28;20120;-59
2023/09/24 04:27:52;;;;;;;0.70;0.47;;;;;;;;;;5049294;28;20060;-60
2023/09/24 04:30:19;;;;;;;0.60;0.60;;;;;;;;;;5056205;28;20083;-59
2023/09/24 04:32:51;;;;;;;0.40;0.40;;;;;;;;;;5056148;28;20074;-59
2023/09/24 04:35:20;;;;;;;0.45;0.38;;;;;;;;;;5052997;28;20501;-59
2023/09/24 04:37:47;;;;;;;0.70;0.50;;;;;;;;;;5049284;28;20076;-59
2023/09/24 04:40:14;;;;;;;0.50;0.50;;;;;;;;;;5051854;28;20044;-58
2023/09/24 04:42:44;;;;;;;0.40;0.40;;;;;;;;;;5053797;28;20044;-59
2023/09/24 04:45:11;;;;;;;0.57;0.55;;;;;;;;;;5053560;28;20102;-59
2023/09/24 04:47:40;;;;;;;0.85;0.50;;;;;;;;;;5049297;28;20497;-59
2023/09/24 04:50:07;;;;;;;0.90;0.80;;;;;;;;;;5055072;28;20041;-59
2023/09/24 04:52:34;;;;;;;0.57;0.57;;;;;;;;;;5057137;28;20119;-59
2023/09/24 04:55:00;;;;;;;1.33;0.63;;;;;;;;;;5055020;28;20461;-59
2023/09/24 04:57:27;;;;;;;0.65;0.40;;;;;;;;;;5056276;28;20102;-59
2023/09/24 04:59:53;;;;;;;0.55;0.55;;;;;;;;;;5052312;28;20888;-59
2023/09/24 05:02:21;;;;;;;0.40;0.40;;;;;;;;;;5054162;28;20143;-59
2023/09/24 05:04:48;;;;;;;0.70;0.57;;;;;;;;;;5053099;28;20044;-59
2023/09/24 05:07:14;;;;;;;0.43;0.43;;;;;;;;;;5053009;28;20040;-59
2023/09/24 05:09:40;;;;;;;1.58;0.80;;;;;;;;;;5052682;28;20042;-59
2023/09/24 05:12:06;;;;;;;1.05;0.77;;;;;;;;;;5056127;28;21023;-59
2023/09/24 05:14:32;;;;;;;0.60;0.60;;;;;;;;;;5055767;28;20657;-59
2023/09/24 05:17:00;;;;;;;0.60;0.60;;;;;;;;;;5057119;28;20056;-59
2023/09/24 05:19:26;;;;;;;0.50;0.50;;;;;;;;;;5054459;28;20079;-59
2023/09/24 05:21:52;;;;;;;0.45;0.45;;;;;;;;;;5057975;28;20453;-60
2023/09/24 05:24:18;;;;;;;0.50;0.50;;;;;;;;;;5054641;28;20580;-59
2023/09/24 05:26:44;;;;;;;0.57;0.50;;;;;;;;;;5050229;28;20409;-59
2023/09/24 05:29:10;;;;;;;0.73;0.50;;;;;;;;;;5045418;28;20052;-59
2023/09/24 05:31:37;;;;;;;0.77;0.77;;;;;;;;;;5046149;28;20091;-59
2023/09/24 05:34:07;;;;;;;0.65;0.65;;;;;;;;;;5045324;28;20474;-59
2023/09/24 05:36:33;;;;;;;0.47;0.47;;;;;;;;;;5045113;28;20090;-59
2023/09/24 05:38:59;;;;;;;0.70;0.70;;;;;;;;;;5046028;28;20036;-60
2023/09/24 05:41:25;;;;;;;0.70;0.70;;;;;;;;;;5045733;28;20090;-59
2023/09/24 05:43:54;;;;;;;0.80;0.70;;;;;;;;;;5044961;28;20056;-59
2023/09/24 05:46:20;;;;;;;1.58;1.13;;;;;;;;;;5045879;28;20052;-59
2023/09/24 05:48:46;;;;;;;1.90;0.98;;;;;;;;;;5045648;28;20037;-59
2023/09/24 05:51:12;;;;;;;1.38;0.80;;;;;;;;;;5045821;28;20045;-59
2023/09/24 05:53:38;;;;;;;0.73;0.70;;;;;;;;;;5049487;28;20108;-59
2023/09/24 05:56:04;;;;;;;2.15;1.00;;;;;;;;;;5049226;28;20577;-59
2023/09/24 05:58:30;;;;;;;1.02;0.93;;;;;;;;;;5048956;28;20702;-59
2023/09/24 06:00:56;;;;;;;1.27;1.17;;;;;;;;;;5049078;28;20075;-59
2023/09/24 06:03:23;;;;;;;0.98;0.95;;;;;;;;;;5051924;28;20481;-59
2023/09/24 06:05:49;;;;;;;0.60;0.60;;;;;;;;;;5048153;28;20077;-59
2023/09/24 06:08:15;;;;;;;0.77;0.75;;;;;;;;;;5049519;28;20109;-59
2023/09/24 06:10:44;;;;;;;1.13;1.02;;;;;;;;;;5048321;28;20116;-59
2023/09/24 06:13:15;;;;;;;1.88;1.30;;;;;;;;;;5049638;28;20048;-59
2023/09/24 06:15:42;;;;;;;1.17;1.08;;;;;;;;;;5049248;28;20037;-59
2023/09/24 06:18:08;;;;;;;1.38;1.00;;;;;;;;;;5048595;28;20094;-59
2023/09/24 06:20:40;;;;;;;1.00;0.90;;;;;;;;;;5048880;28;20029;-59
2023/09/24 06:23:06;;;;;;;0.75;0.68;;;;;;;;;;5049158;28;20417;-59
2023/09/24 06:25:33;;;;;;;1.10;1.00;;;;;;;;;;5048561;28;20045;-59
2023/09/24 06:28:00;;;;;;;0.80;0.80;;;;;;;;;;5052868;28;20075;-59
2023/09/24 06:30:26;;;;;;;2.05;1.20;;;;;;;;;;5050841;28;20045;-60
2023/09/24 06:32:51;;;;;;;1.20;1.10;;;;;;;;;;5054470;28;20447;-59
2023/09/24 06:35:17;;;;;;;1.67;1.30;;;;;;;;;;5048667;28;20049;-59
2023/09/24 06:37:43;;;;;;;0.98;0.80;;;;;;;;;;5048695;28;20056;-59
2023/09/24 06:40:10;;;;;;;1.38;1.27;;;;;;;;;;5048037;28;20362;-59
2023/09/24 06:42:37;;;;;;;2.22;1.23;;;;;;;;;;5048640;28;20040;-58
2023/09/24 06:45:04;;;;;;;1.17;1.08;;;;;;;;;;5048541;28;20037;-59
2023/09/24 06:47:30;;;;;;;1.60;1.23;;;;;;;;;;5045414;28;20037;-59
2023/09/24 06:49:56;;;;;;;1.17;0.93;;;;;;;;;;5047225;28;20041;-59
2023/09/24 06:52:22;;;;;;;2.30;1.30;;;;;;;;;;5044313;28;20402;-60
2023/09/24 06:54:48;;;;;;;2.40;2.17;;;;;;;;;;5054484;28;20058;-59
2023/09/24 06:57:14;;;;;;;2.60;2.40;;;;;;;;;;5057087;28;20477;-59
2023/09/24 06:59:40;;;;;;;5.03;2.97;;;;;;;;;;5066288;28;20044;-60
2023/09/24 07:02:07;;;;;;;3.20;1.75;;;;;;;;;;5049758;28;20048;-59
2023/09/24 07:04:33;;;;;;;1.92;1.75;;;;;;;;;;5048260;28;20108;-59
2023/09/24 07:06:59;;;;;;;2.28;2.00;;;;;;;;;;5047692;28;20116;-59
2023/09/24 07:09:25;;;;;;;2.53;2.33;;;;;;;;;;5054747;28;20039;-60
2023/09/24 07:11:51;;;;;;;3.78;2.80;;;;;;;;;;5051677;28;20056;-59
2023/09/24 07:14:19;;;;;;;3.40;2.10;;;;;;;;;;5051890;28;20064;-59
2023/09/24 07:16:46;;;;;;;5.80;2.65;;;;;;;;;;5050501;28;20051;-59
2023/09/24 07:19:12;;;;;;;2.60;2.40;;;;;;;;;;5049660;28;20051;-59
2023/09/24 07:21:38;;;;;;;3.85;2.75;;;;;;;;;;5047111;28;20190;-59
2023/09/24 07:24:05;;;;;;;3.80;2.83;;;;;;;;;;5053861;28;20048;-59
2023/09/24 07:26:31;;;;;;;2.42;1.70;;;;;;;;;;5050530;28;20145;-59
2023/09/24 07:28:57;;;;;;;2.72;1.60;;;;;;;;;;5048130;28;20394;-59
2023/09/24 07:31:25;;;;;;;1.92;1.70;;;;;;;;;;5048762;28;20050;-59
2023/09/24 07:33:52;;;;;;;1.40;1.23;;;;;;;;;;5051099;28;20150;-59
2023/09/24 07:36:18;;;;;;;1.67;1.55;;;;;;;;;;5049708;28;20504;-59
2023/09/24 07:38:45;;;;;;;1.65;1.52;;;;;;;;;;5050672;28;20040;-59
2023/09/24 07:41:11;;;;;;;1.70;1.30;;;;;;;;;;5047558;28;20033;-59
2023/09/24 07:43:38;;;;;;;2.63;1.90;;;;;;;;;;5047456;28;20761;-59
2023/09/24 07:46:04;;;;;;;1.77;1.40;;;;;;;;;;5048802;28;20040;-59
2023/09/24 07:48:30;;;;;;;1.77;1.58;;;;;;;;;;5050646;28;20041;-60
2023/09/24 07:50:57;;;;;;;2.88;1.85;;;;;;;;;;5048505;28;20455;-59
2023/09/24 07:53:23;;;;;;;4.65;1.98;;;;;;;;;;5049006;28;20037;-59
2023/09/24 07:56:06;;;;;;;3.00;2.20;;;;;;;;;;5045525;28;20053;-60
2023/09/24 07:58:32;;;;;;;4.82;2.22;;;;;;;;;;5057023;28;20487;-60
2023/09/24 08:01:05;;;;;;;2.28;1.65;;;;;;;;;;5060567;28;20597;-61
2023/09/24 08:03:35;;;;;;;2.50;1.90;;;;;;;;;;5048641;28;20040;-60
2023/09/24 08:06:01;;;;;;;4.35;2.40;;;;;;;;;;5052436;28;20052;-62
2023/09/24 08:08:28;;;;;;;4.18;2.85;;;;;;;;;;5053136;28;20505;-62
2023/09/24 08:10:54;;;;;;;3.13;2.55;;;;;;;;;;5053186;28;20048;-62
2023/09/24 08:13:20;;;;;;;3.95;2.42;;;;;;;;;;5045778;28;20040;-61
2023/09/24 08:15:47;;;;;;;3.05;2.13;;;;;;;;;;5041409;28;20048;-61
2023/09/24 08:18:13;;;;;;;2.72;1.70;;;;;;;;;;5043824;28;20041;-61
2023/09/24 08:20:40;;;;;;;1.48;1.38;;;;;;;;;;5043392;28;20135;-61
2023/09/24 08:23:06;;;;;;;2.60;2.40;;;;;;;;;;5045206;28;20077;-60
2023/09/24 08:25:32;;;;;;;2.92;1.98;;;;;;;;;;5048098;28;20491;-60
2023/09/24 08:27:58;;;;;;;1.98;1.80;;;;;;;;;;5047358;28;20091;-60
2023/09/24 08:30:25;;;;;;;2.25;2.05;;;;;;;;;;5048689;28;20128;-60
2023/09/24 08:32:51;;;;;;;2.75;2.00;;;;;;;;;;5039992;28;20052;-60
2023/09/24 08:35:17;;;;;;;4.80;2.20;;;;;;;;;;5047823;28;20033;-60
2023/09/24 08:37:44;;;;;;;2.60;2.00;;;;;;;;;;5051105;28;20127;-60
2023/09/24 08:40:11;;;;;;;3.47;1.67;;;;;;;;;;5043874;28;20409;-60
2023/09/24 08:42:38;;;;;;;2.75;2.40;;;;;;;;;;5047205;28;20042;-60
2023/09/24 08:45:14;;;;;;;3.10;2.47;;;;;;;;;;5041808;28;20111;-60
2023/09/24 08:47:41;;;;;;;4.53;2.88;;;;;;;;;;5046032;28;20047;-60
2023/09/24 08:50:07;;;;;;;3.30;2.00;;;;;;;;;;5039883;28;20055;-60
2023/09/24 08:52:38;;;;;;;3.88;2.33;;;;;;;;;;5039249;28;20045;-60
2023/09/24 08:55:09;;;;;;;2.22;2.03;;;;;;;;;;5045649;28;20630;-60
2023/09/24 08:57:36;;;;;;;3.08;2.40;;;;;;;;;;5046320;28;20048;-60
2023/09/24 09:00:04;;;;;;;5.63;3.33;;;;;;;;;;5041952;28;20045;-61
2023/09/24 09:02:31;;;;;;;3.53;2.45;;;;;;;;;;5043520;28;20109;-60
2023/09/24 09:04:57;;;;;;;3.60;1.95;;;;;;;;;;5046105;28;20052;-60
2023/09/24 09:07:23;;;;;;;1.55;1.35;;;;;;;;;;5048397;28;20048;-63
2023/09/24 09:09:56;;;;;;;7.57;2.30;;;;;;;;;;5049993;28;20037;-60
2023/09/24 09:12:24;;;;;;;4.03;2.30;;;;;;;;;;5045115;28;20388;-60
2023/09/24 09:14:50;;;;;;;5.45;2.20;;;;;;;;;;5045821;28;20037;-56
2023/09/24 09:17:16;;;;;;;4.85;1.95;;;;;;;;;;5049325;28;20035;-59
2023/09/24 09:19:52;;;;;;;3.38;1.60;;;;;;;;;;5046180;28;20037;-59
2023/09/24 09:22:25;;;;;;;2.78;1.70;;;;;;;;;;5048721;28;20057;-60
2023/09/24 09:25:10;;;;;;;2.08;1.85;;;;;;;;;;5050180;28;20110;-59
2023/09/24 09:27:43;;;;;;;4.32;2.20;;;;;;;;;;5047394;28;20041;-59
2023/09/24 09:30:15;;;;;;;2.45;1.83;;;;;;;;;;5048549;28;20045;-58
2023/09/24 09:32:42;;;;;;;;;;;;;;;;;;5047102;28;20540;-59
2023/09/24 09:35:08;;;;;;;4.43;2.03;;;;;;;;;;5044309;28;20369;-60
2023/09/24 09:37:34;;;;;;;2.85;1.80;;;;;;;;;;5048112;28;20389;-58
2023/09/24 09:40:00;;;;;;;3.28;1.90;;;;;;;;;;5046309;28;20100;-60
2023/09/24 09:42:31;;;;;;;2.97;2.05;;;;;;;;;;5046729;28;20040;-61
2023/09/24 09:44:59;;;;;;;3.00;1.90;;;;;;;;;;5042789;28;20667;-60
2023/09/24 09:47:27;;;;;;;4.40;2.55;;;;;;;;;;5049814;28;20041;-59
2023/09/24 09:49:58;;;;;;;3.38;2.00;;;;;;;;;;5044983;28;20430;-59
2023/09/24 09:52:27;;;;;;;2.67;1.65;;;;;;;;;;5050828;28;20040;-59
2023/09/24 09:54:54;;;;;;;3.30;1.45;;;;;;;;;;5050532;28;20271;-60
2023/09/24 09:57:21;;;;;;;2.60;1.58;;;;;;;;;;5053684;28;20056;-60
2023/09/24 09:59:47;;;;;;;3.05;1.52;;;;;;;;;;5044628;28;20041;-60
2023/09/24 10:02:13;;;;;;;3.17;1.45;;;;;;;;;;5047763;28;20072;-59
2023/09/24 10:04:39;;;;;;;2.08;1.83;;;;;;;;;;5046060;28;20090;-61
2023/09/24 10:07:05;;;;;;;6.47;2.22;;;;;;;;;;5049967;28;20041;-59
2023/09/24 10:09:34;;;;;;;4.10;1.70;;;;;;;;;;5045535;28;20041;-61
2023/09/24 10:12:01;;;;;;;2.80;1.67;;;;;;;;;;5045264;28;20504;-60
2023/09/24 10:14:34;;;;;;;3.00;1.92;;;;;;;;;;5045073;28;20033;-62
2023/09/24 10:17:19;;;;;;;2.22;1.60;;;;;;;;;;5052354;28;20040;-59
2023/09/24 10:19:48;;;;;;;4.78;2.08;;;;;;;;;;5043603;28;20067;-60
2023/09/24 10:22:45;;;;;;;3.45;1.98;;;;;;;;;;5046347;28;20501;-60
2023/09/24 10:25:46;;;;;;;2.80;1.85;;;;;;;;;;5038415;28;20481;-60
2023/09/24 10:28:12;;;;;;;2.90;1.30;;;;;;;;;;5036773;28;20577;-60
2023/09/24 10:30:57;;;;;;;3.50;1.75;;;;;;;;;;5043051;28;20054;-59
2023/09/24 10:33:41;;;;;;;5.10;1.92;;;;;;;;;;5038882;28;20270;-61
2023/09/24 10:36:22;;;;;;;1.58;1.20;;;;;;;;;;5039960;28;20052;-61
2023/09/24 10:39:03;;;;;;;1.88;1.38;;;;;;;;;;5040751;28;20045;-60
2023/09/24 10:41:29;;;;;;;2.22;1.17;;;;;;;;;;5044059;28;20092;-59
2023/09/24 10:44:14;;;;;;;2.75;1.40;;;;;;;;;;5045294;28;20102;-61
2023/09/24 10:46:40;;;;;;;1.88;1.33;;;;;;;;;;5045322;28;20036;-60
2023/09/24 10:49:07;;;;;;;2.67;1.40;;;;;;;;;;5044105;28;20039;-60
2023/09/24 10:51:33;;;;;;;2.25;1.35;;;;;;;;;;5048531;28;20068;-59
2023/09/24 10:54:15;;;;;;;2.88;1.00;;;;;;;;;;5053339;28;20037;-60
2023/09/24 10:56:41;;;;;;;;;;;;;;;;;;5048297;28;20059;-60
2023/09/24 10:59:08;;;;;;;2.70;1.80;;;;;;;;;;5043952;28;20383;-61
2023/09/24 11:01:34;;;;;;;3.08;1.27;;;;;;;;;;5044580;28;20041;-60
2023/09/24 11:04:00;;;;;;;2.80;1.50;;;;;;;;;;5049560;28;20045;-61
2023/09/24 11:06:31;;;;;;;2.40;1.30;;;;;;;;;;5047655;28;20086;-60
2023/09/24 11:09:13;;;;;;;4.22;1.15;;;;;;;;;;5058597;28;20103;-61
2023/09/24 11:11:39;;;;;;;;;;;;;;;;;;5042515;28;20040;-60
2023/09/24 11:14:14;;;;;;;3.80;1.33;;;;;;;;;;5054137;28;19916;-59
2023/09/24 11:16:40;;;;;;;3.38;1.60;;;;;;;;;;5052356;28;20040;-61
2023/09/24 11:19:06;;;;;;;3.22;1.70;;;;;;;;;;5049320;28;20044;-61
2023/09/24 11:21:32;;;;;;;2.08;0.90;;;;;;;;;;5049956;28;20470;-60
2023/09/24 11:23:58;;;;;;;1.73;1.20;;;;;;;;;;5047414;28;20584;-61
2023/09/24 11:26:31;;;;;;;1.25;1.10;;;;;;;;;;5046994;28;20088;-61
2023/09/24 11:28:57;;;;;;;1.77;1.48;;;;;;;;;;5050670;28;20040;-60
2023/09/24 11:31:26;;;;;;;2.15;1.38;;;;;;;;;;5047427;28;20587;-59
2023/09/24 11:33:58;;;;;;;2.38;1.30;;;;;;;;;;5047346;28;20049;-61
2023/09/24 11:36:27;;;;;;;2.15;1.35;;;;;;;;;;5047641;28;20128;-60
2023/09/24 11:39:03;;;;;;;1.67;1.05;;;;;;;;;;5048082;28;20076;-61
2023/09/24 11:41:29;;;;;;;2.58;1.20;;;;;;;;;;5043421;28;20033;-60
2023/09/24 11:43:59;;;;;;;2.03;1.42;;;;;;;;;;5047323;28;20577;-61
2023/09/24 11:46:28;;;;;;;2.80;1.40;;;;;;;;;;5052568;28;20044;-61
2023/09/24 11:48:59;;;;;;;1.90;1.20;;;;;;;;;;5046775;28;20484;-61
2023/09/24 11:51:25;;;;;;;2.97;1.17;;;;;;;;;;5042986;28;20040;-61
2023/09/24 11:53:51;;;;;;;1.08;0.85;;;;;;;;;;5049052;28;20554;-61
2023/09/24 11:56:17;;;;;;;2.75;1.40;;;;;;;;;;5056083;28;20049;-61
2023/09/24 11:58:43;;;;;;;3.00;1.42;;;;;;;;;;5052618;28;20044;-60
2023/09/24 12:01:10;;;;;;;1.17;0.90;;;;;;;;;;5047869;28;20114;-60
2023/09/24 12:03:37;;;;;;;1.73;1.20;;;;;;;;;;5046385;28;20033;-61
2023/09/24 12:06:03;;;;;;;1.45;0.90;;;;;;;;;;5054772;28;20041;-61
2023/09/24 12:08:29;;;;;;;1.75;1.30;;;;;;;;;;5056345;28;20068;-61
2023/09/24 12:10:55;;;;;;;1.52;1.30;;;;;;;;;;5051302;28;20044;-60
2023/09/24 12:13:22;;;;;;;2.03;1.35;;;;;;;;;;5047077;28;20362;-61
2023/09/24 12:15:48;;;;;;;1.33;1.20;;;;;;;;;;5048258;28;20386;-60
2023/09/24 12:18:14;;;;;;;2.72;1.10;;;;;;;;;;5052301;28;20048;-61
2023/09/24 12:20:41;;;;;;;1.95;0.85;;;;;;;;;;5047126;28;20039;-61
2023/09/24 12:23:07;;;;;;;2.15;1.27;;;;;;;;;;5052168;28;20642;-60
2023/09/24 12:25:37;;;;;;;1.20;0.80;;;;;;;;;;5053498;28;20044;-60
2023/09/24 12:28:03;;;;;;;2.65;1.35;;;;;;;;;;5055957;28;20063;-61
2023/09/24 12:30:29;;;;;;;2.95;1.30;;;;;;;;;;5042859;28;20037;-61
2023/09/24 12:32:55;;;;;;;2.33;0.95;;;;;;;;;;5046156;28;20041;-61
2023/09/24 12:35:21;;;;;;;2.13;1.17;;;;;;;;;;5045810;28;20060;-61
2023/09/24 12:37:47;;;;;;;3.60;1.30;;;;;;;;;;5047733;28;20503;-61
2023/09/24 12:40:13;;;;;;;1.35;1.17;;;;;;;;;;5049226;28;20135;-61
2023/09/24 12:42:40;;;;;;;2.50;1.10;;;;;;;;;;5048981;28;20029;-61
2023/09/24 12:45:07;;;;;;;1.33;1.00;;;;;;;;;;5050200;28;20033;-61
2023/09/24 12:47:34;;;;;;;1.23;1.08;;;;;;;;;;5043814;28;20059;-61
2023/09/24 12:50:07;;;;;;;3.38;1.23;;;;;;;;;;5046167;28;20040;-61
2023/09/24 12:52:34;;;;;;;1.13;0.70;;;;;;;;;;5045892;28;20132;-61
2023/09/24 12:55:03;;;;;;;3.60;1.40;;;;;;;;;;5048347;28;20048;-60
2023/09/24 12:57:33;;;;;;;1.52;0.80;;;;;;;;;;5052438;28;20036;-60
2023/09/24 12:59:59;;;;;;;1.80;1.02;;;;;;;;;;5049678;28;20052;-60
2023/09/24 13:02:25;;;;;;;1.30;0.77;;;;;;;;;;5059718;28;20037;-60
2023/09/24 13:04:51;;;;;;;2.40;0.80;;;;;;;;;;5050710;28;20048;-60
2023/09/24 13:07:17;;;;;;;2.08;0.95;;;;;;;;;;5046778;28;20048;-60
2023/09/24 13:09:45;;;;;;;1.80;1.10;;;;;;;;;;5046500;28;20397;-60
2023/09/24 13:12:11;;;;;;;1.50;1.00;;;;;;;;;;5045019;28;20048;-60
2023/09/24 13:14:37;;;;;;;3.40;0.77;;;;;;;;;;5048203;28;20425;-60
2023/09/24 13:17:03;;;;;;;1.25;0.82;;;;;;;;;;5052912;28;20485;-60
2023/09/24 13:19:30;;;;;;;2.30;0.90;;;;;;;;;;5051846;28;20121;-60
2023/09/24 13:21:56;;;;;;;0.90;0.65;;;;;;;;;;5046458;28;20080;-60
2023/09/24 13:24:22;;;;;;;2.13;0.98;;;;;;;;;;5053409;28;20072;-60
2023/09/24 13:26:48;;;;;;;0.70;0.70;;;;;;;;;;5051244;28;20043;-60
2023/09/24 13:29:14;;;;;;;1.15;0.80;;;;;;;;;;5054750;28;20040;-60
2023/09/24 13:31:40;;;;;;;1.05;0.60;;;;;;;;;;5046100;28;20043;-59
2023/09/24 13:34:07;;;;;;;1.05;0.70;;;;;;;;;;5050596;28;20083;-60
2023/09/24 13:36:33;;;;;;;2.05;1.00;;;;;;;;;;5051032;28;20083;-60
2023/09/24 13:39:00;;;;;;;3.08;1.00;;;;;;;;;;5047393;28;20071;-60
2023/09/24 13:41:27;;;;;;;1.42;0.60;;;;;;;;;;5041698;28;20572;-60
2023/09/24 13:43:53;;;;;;;1.67;0.85;;;;;;;;;;5049421;28;20417;-60
2023/09/24 13:46:19;;;;;;;1.63;0.90;;;;;;;;;;5051395;28;20381;-60
2023/09/24 13:48:46;;;;;;;1.85;0.77;;;;;;;;;;5047901;28;20416;-60
2023/09/24 13:51:12;;;;;;;1.00;0.50;;;;;;;;;;5049684;28;20120;-60
2023/09/24 13:53:38;;;;;;;2.88;0.90;;;;;;;;;;5047911;28;20048;-60
2023/09/24 13:56:10;;;;;;;2.03;0.85;;;;;;;;;;5042375;28;20083;-60
2023/09/24 13:58:36;;;;;;;2.20;0.80;;;;;;;;;;5042568;28;20499;-60
2023/09/24 14:01:03;;;;;;;2.78;1.27;;;;;;;;;;5039907;28;20048;-60
2023/09/24 14:03:29;;;;;;;2.33;0.73;;;;;;;;;;5039462;28;20041;-60
2023/09/24 14:06:01;;;;;;;2.63;1.00;;;;;;;;;;5039912;28;20041;-60
2023/09/24 14:14:10;;;;;;;2.50;1.60;;;;;;;;;;5049637;28;20496;-59
2023/09/24 14:16:44;;;;;;;2.50;1.40;;;;;;;;;;5043485;28;20048;-60
2023/09/24 14:19:10;;;;;;;1.75;1.50;;;;;;;;;;5049359;28;20041;-60
2023/09/24 14:21:37;;;;;;;1.25;1.13;;;;;;;;;;5050878;28;20401;-58
2023/09/24 14:24:03;;;;;;;0.85;0.80;;;;;;;;;;5050119;28;20036;-60
2023/09/24 14:26:29;;;;;;;1.30;1.00;;;;;;;;;;5049986;28;20113;-60
2023/09/24 14:28:58;;;;;;;1.58;0.80;;;;;;;;;;5048648;28;20485;-60
2023/09/24 14:31:25;;;;;;;1.27;0.82;;;;;;;;;;5055907;28;20439;-59
2023/09/24 14:33:51;;;;;;;2.05;1.15;;;;;;;;;;5053740;28;20071;-60
2023/09/24 14:36:18;;;;;;;1.85;1.10;;;;;;;;;;5053828;28;20550;-60
2023/09/24 14:38:44;;;;;;;2.58;1.27;;;;;;;;;;5048343;28;20041;-60
2023/09/24 14:41:11;;;;;;;2.45;1.90;;;;;;;;;;5049354;28;20039;-60
2023/09/24 14:43:37;;;;;;;1.65;1.40;;;;;;;;;;5053041;28;20044;-59
2023/09/24 14:46:05;;;;;;;1.55;1.20;;;;;;;;;;5044586;28;20041;-60
2023/09/24 14:48:31;;;;;;;0.77;0.77;;;;;;;;;;5046947;28;20048;-60
2023/09/24 14:50:57;;;;;;;1.80;1.02;;;;;;;;;;5050722;28;20646;-60
2023/09/24 14:53:24;;;;;;;1.10;0.82;;;;;;;;;;5049040;28;20037;-60